createdAt,value
2019-05-22T00:01:44.526Z,12.00
2019-05-22T00:04:27.125Z,12.00
2019-05-22T00:06:58.287Z,12.20
2019-05-22T00:09:30.031Z,12.20
2019-05-22T00:14:29.079Z,12.30
2019-05-22T00:19:29.036Z,12.10
2019-05-22T00:22:14.284Z,12.20
2019-05-22T00:24:46.162Z,12.10
2019-05-22T00:27:17.086Z,12.50
2019-05-22T00:29:47.141Z,12.50
2019-05-22T00:32:17.279Z,12.10
2019-05-22T00:34:48.547Z,12.40
2019-05-22T00:37:17.657Z,12.10
2019-05-22T00:39:47.937Z,12.70
2019-05-22T00:42:18.384Z,12.30
2019-05-22T00:44:48.270Z,12.30
2019-05-22T00:47:17.863Z,12.30
2019-05-22T00:49:49.543Z,12.40
2019-05-22T00:52:22.797Z,12.20
2019-05-22T00:54:55.249Z,12.00
2019-05-22T00:57:33.543Z,11.90
2019-05-22T01:02:36.683Z,12.00
2019-05-22T01:05:06.279Z,12.10
2019-05-22T01:07:39.442Z,12.20
2019-05-22T01:10:11.383Z,12.20
2019-05-22T01:12:42.785Z,12.10
2019-05-22T01:15:14.903Z,12.00
2019-05-22T01:17:44.971Z,11.80
2019-05-22T01:20:16.637Z,11.90
2019-05-22T01:22:47.564Z,12.10
2019-05-22T01:25:20.803Z,12.60
2019-05-22T01:27:49.685Z,12.10
2019-05-22T01:30:23.720Z,12.10
2019-05-22T01:32:54.523Z,11.80
2019-05-22T01:35:36.904Z,11.90
2019-05-22T01:38:06.893Z,12.20
2019-05-22T01:40:45.801Z,12.20
2019-05-22T01:43:20.519Z,12.10
2019-05-22T01:48:29.784Z,12.10
2019-05-22T01:50:58.352Z,11.70
2019-05-22T01:53:29.267Z,11.90
2019-05-22T01:55:59.612Z,12.00
2019-05-22T01:58:31.068Z,12.00
2019-05-22T02:01:00.841Z,11.90
2019-05-22T02:03:31.301Z,11.80
2019-05-22T02:06:01.657Z,11.90
2019-05-22T02:08:32.227Z,11.90
2019-05-22T02:11:02.162Z,11.90
2019-05-22T02:13:35.411Z,12.00
2019-05-22T02:16:06.132Z,12.20
2019-05-22T02:23:34.283Z,12.10
2019-05-22T02:26:07.492Z,12.10
2019-05-22T02:28:39.028Z,12.00
2019-05-22T02:31:07.619Z,12.00
2019-05-22T02:33:39.359Z,12.10
2019-05-22T02:36:07.914Z,11.90
2019-05-22T02:38:37.530Z,12.00
2019-05-22T02:41:08.390Z,12.00
2019-05-22T02:43:37.365Z,11.90
2019-05-22T02:46:07.640Z,12.20
2019-05-22T02:48:37.213Z,12.10
2019-05-22T02:51:06.215Z,11.90
2019-05-22T02:56:04.037Z,12.10
2019-05-22T02:58:34.593Z,12.50
2019-05-22T03:01:05.590Z,12.10
2019-05-22T03:06:07.419Z,12.10
2019-05-22T03:08:55.641Z,12.00
2019-05-22T03:11:24.788Z,12.00
2019-05-22T03:14:01.048Z,12.00
2019-05-22T03:16:32.732Z,12.00
2019-05-22T03:19:08.791Z,12.60
2019-05-22T03:21:34.354Z,12.10
2019-05-22T03:24:03.386Z,12.10
2019-05-22T03:26:40.638Z,12.10
2019-05-22T03:29:10.815Z,11.80
2019-05-22T03:34:08.136Z,11.80
2019-05-22T03:36:37.546Z,11.80
2019-05-22T03:39:07.957Z,12.00
2019-05-22T03:41:37.435Z,11.90
2019-05-22T03:44:06.486Z,11.90
2019-05-22T03:51:35.067Z,11.80
2019-05-22T03:54:03.695Z,11.90
2019-05-22T03:56:32.821Z,12.10
2019-05-22T03:59:02.423Z,11.70
2019-05-22T04:04:02.852Z,11.80
2019-05-22T04:06:32.994Z,11.90
2019-05-22T04:09:06.291Z,11.90
2019-05-22T04:11:39.069Z,12.10
2019-05-22T04:14:08.598Z,11.90
2019-05-22T04:24:04.265Z,12.10
2019-05-22T04:26:33.260Z,11.90
2019-05-22T04:29:01.893Z,11.80
2019-05-22T04:31:41.976Z,11.90
2019-05-22T04:34:11.282Z,11.70
2019-05-22T04:36:40.185Z,11.70
2019-05-22T04:39:12.388Z,12.00
2019-05-22T04:41:41.836Z,11.80
2019-05-22T04:44:11.529Z,11.90
2019-05-22T04:46:41.506Z,11.80
2019-05-22T04:49:10.823Z,11.80
2019-05-22T04:51:39.551Z,11.90
2019-05-22T04:54:08.748Z,11.90
2019-05-22T04:56:37.350Z,11.90
2019-05-22T05:01:34.826Z,12.10
2019-05-22T05:04:03.780Z,11.80
2019-05-22T05:09:03.893Z,11.80
2019-05-22T05:11:33.963Z,11.80
2019-05-22T05:14:02.651Z,11.80
2019-05-22T05:16:31.197Z,11.90
2019-05-22T05:19:00.244Z,11.90
2019-05-22T05:21:29.057Z,12.00
2019-05-22T05:23:57.695Z,12.10
2019-05-22T05:28:55.821Z,12.00
2019-05-22T05:31:25.791Z,12.20
2019-05-22T05:34:06.242Z,12.00
2019-05-22T05:36:35.280Z,12.20
2019-05-22T05:41:34.990Z,12.10
2019-05-22T05:44:04.707Z,12.20
2019-05-22T05:46:33.636Z,12.10
2019-05-22T05:49:02.791Z,11.90
2019-05-22T05:51:37.286Z,12.10
2019-05-22T05:54:09.566Z,11.80
2019-05-22T05:56:41.340Z,11.60
2019-05-22T05:59:12.262Z,11.80
2019-05-22T06:01:42.536Z,11.70
2019-05-22T06:04:11.801Z,11.70
2019-05-22T06:06:43.434Z,12.00
2019-05-22T06:09:15.113Z,12.00
2019-05-22T06:11:46.887Z,12.20
2019-05-22T06:14:25.275Z,11.90
2019-05-22T06:17:07.702Z,11.70
2019-05-22T06:29:57.661Z,11.90
2019-05-22T06:32:47.856Z,12.00
2019-05-22T06:38:03.785Z,12.00
2019-05-22T06:40:33.386Z,12.10
2019-05-22T06:43:24.716Z,12.50
2019-05-22T06:45:55.000Z,12.10
2019-05-22T06:48:23.989Z,11.70
2019-05-22T06:50:52.894Z,12.10
2019-05-22T06:53:21.578Z,11.70
2019-05-22T06:55:51.077Z,11.80
2019-05-22T06:58:20.683Z,11.80
2019-05-22T07:00:49.311Z,11.60
2019-05-22T07:03:18.798Z,11.80
2019-05-22T07:05:47.894Z,11.80
2019-05-22T07:08:17.181Z,11.80
2019-05-22T07:10:46.554Z,12.00
2019-05-22T07:13:16.953Z,12.10
2019-05-22T07:15:46.555Z,12.10
2019-05-22T07:18:17.705Z,12.00
2019-05-22T07:20:48.860Z,12.00
2019-05-22T07:25:49.029Z,12.00
2019-05-22T07:30:48.878Z,12.10
2019-05-22T07:36:07.653Z,12.10
2019-05-22T07:40:50.203Z,11.90
2019-05-22T07:43:17.433Z,12.30
2019-05-22T07:45:47.029Z,12.70
2019-05-22T07:48:16.849Z,12.60
2019-05-22T07:50:48.821Z,12.00
2019-05-22T07:53:17.490Z,12.10
2019-05-22T07:55:46.757Z,11.90
2019-05-22T07:58:18.013Z,11.90
2019-05-22T08:00:50.868Z,12.30
2019-05-22T08:03:20.329Z,12.10
2019-05-22T08:13:16.580Z,12.40
2019-05-22T08:15:47.848Z,12.20
2019-05-22T08:18:17.678Z,12.10
2019-05-22T08:20:46.356Z,12.20
2019-05-22T08:23:15.794Z,12.00
2019-05-22T08:25:44.514Z,12.10
2019-05-22T08:28:14.236Z,12.20
2019-05-22T08:30:42.869Z,12.30
2019-05-22T08:35:42.423Z,12.30
2019-05-22T08:40:41.031Z,12.60
2019-05-22T08:45:39.020Z,12.20
2019-05-22T08:48:07.903Z,12.20
2019-05-22T08:50:37.558Z,12.30
2019-05-22T08:53:07.066Z,12.50
2019-05-22T08:55:36.170Z,12.30
2019-05-22T08:58:05.927Z,12.30
2019-05-22T09:00:34.731Z,12.40
2019-05-22T09:03:04.405Z,12.60
2019-05-22T09:05:33.413Z,12.60
2019-05-22T09:08:02.707Z,12.70
2019-05-22T09:10:33.163Z,12.30
2019-05-22T09:13:01.746Z,12.50
2019-05-22T09:15:31.711Z,12.40
2019-05-22T09:18:00.789Z,12.40
2019-05-22T09:22:59.725Z,12.90
2019-05-22T09:25:29.229Z,12.60
2019-05-22T09:30:27.979Z,12.90
2019-05-22T09:32:57.171Z,12.90
2019-05-22T09:35:26.057Z,13.10
2019-05-22T09:37:54.910Z,12.70
2019-05-22T09:40:23.810Z,12.70
2019-05-22T09:42:52.780Z,13.00
2019-05-22T09:45:22.066Z,13.00
2019-05-22T09:47:51.935Z,13.00
2019-05-22T09:52:57.475Z,12.70
2019-05-22T09:55:22.274Z,12.60
2019-05-22T09:57:51.213Z,12.90
2019-05-22T10:02:49.044Z,13.00
2019-05-22T10:05:18.919Z,12.70
2019-05-22T10:07:59.364Z,12.70
2019-05-22T10:10:19.282Z,13.20
2019-05-22T10:12:48.072Z,12.80
2019-05-22T10:15:17.255Z,13.10
2019-05-22T10:17:49.396Z,13.10
2019-05-22T10:20:20.446Z,12.90
2019-05-22T10:22:49.491Z,13.10
2019-05-22T10:25:18.634Z,13.20
2019-05-22T10:27:50.001Z,13.10
2019-05-22T10:30:22.727Z,14.00
2019-05-22T10:32:51.446Z,13.40
2019-05-22T10:35:26.816Z,13.20
2019-05-22T10:37:55.839Z,13.30
2019-05-22T10:40:24.784Z,13.10
2019-05-22T10:42:54.123Z,13.00
2019-05-22T10:45:22.725Z,12.80
2019-05-22T10:50:20.127Z,12.80
2019-05-22T10:52:54.222Z,12.60
2019-05-22T10:55:21.302Z,12.70
2019-05-22T10:57:50.037Z,12.70
2019-05-22T11:00:20.077Z,12.50
2019-05-22T11:02:49.097Z,12.90
2019-05-22T11:05:20.042Z,12.80
2019-05-22T11:07:49.358Z,12.60
2019-05-22T11:10:20.048Z,12.80
2019-05-22T11:15:18.164Z,12.80
2019-05-22T11:17:46.771Z,12.60
2019-05-22T11:20:16.466Z,12.50
2019-05-22T11:22:45.115Z,12.30
2019-05-22T11:25:16.044Z,12.50
2019-05-22T11:27:45.389Z,12.60
2019-05-22T11:30:16.789Z,12.50
2019-05-22T11:32:45.967Z,12.90
2019-05-22T11:35:17.041Z,12.40
2019-05-22T11:37:45.659Z,13.00
2019-05-22T11:40:15.165Z,12.50
2019-05-22T11:42:43.871Z,12.50
2019-05-22T11:45:14.675Z,12.60
2019-05-22T11:47:43.331Z,12.40
2019-05-22T11:50:13.116Z,12.70
2019-05-22T11:52:42.508Z,12.60
2019-05-22T12:00:13.317Z,12.60
2019-05-22T12:02:43.596Z,12.60
2019-05-22T12:05:12.677Z,12.60
2019-05-22T12:10:11.655Z,12.90
2019-05-22T12:12:41.511Z,12.80
2019-05-22T12:15:12.496Z,13.30
2019-05-22T12:20:12.768Z,13.00
2019-05-22T12:25:12.819Z,13.10
2019-05-22T12:30:11.700Z,12.70
2019-05-22T12:32:40.934Z,12.90
2019-05-22T12:35:12.018Z,13.10
2019-05-22T12:37:41.726Z,12.90
2019-05-22T12:40:13.300Z,13.00
2019-05-22T12:42:42.645Z,13.40
2019-05-22T12:47:43.184Z,13.20
2019-05-22T12:50:15.424Z,13.30
2019-05-22T12:52:47.322Z,13.00
2019-05-22T12:55:16.667Z,12.90
2019-05-22T12:57:45.267Z,12.90
2019-05-22T13:00:14.646Z,12.90
2019-05-22T13:02:44.521Z,13.30
2019-05-22T13:05:14.473Z,13.10
2019-05-22T13:07:43.824Z,13.10
2019-05-22T13:10:13.328Z,12.90
2019-05-22T13:12:41.952Z,12.70
2019-05-22T13:15:12.041Z,12.90
2019-05-22T13:17:40.926Z,12.90
2019-05-22T13:20:12.236Z,12.80
2019-05-22T13:22:45.196Z,12.80
2019-05-22T13:25:17.097Z,13.70
2019-05-22T13:27:45.696Z,13.20
2019-05-22T13:30:17.149Z,13.50
2019-05-22T13:32:46.422Z,13.00
2019-05-22T13:35:17.685Z,13.30
2019-05-22T13:37:46.362Z,13.00
2019-05-22T13:40:27.096Z,13.80
2019-05-22T13:42:45.706Z,13.40
2019-05-22T13:45:28.848Z,13.10
2019-05-22T13:47:46.011Z,13.40
2019-05-22T13:50:17.488Z,13.20
2019-05-22T13:52:47.584Z,13.50
2019-05-22T13:55:17.912Z,13.20
2019-05-22T13:57:48.784Z,13.20
2019-05-22T14:00:20.539Z,13.50
2019-05-22T14:02:49.728Z,13.70
2019-05-22T14:05:19.066Z,13.30
2019-05-22T14:07:47.704Z,13.10
2019-05-22T14:10:17.245Z,13.40
2019-05-22T14:12:46.133Z,13.40
2019-05-22T14:15:15.249Z,13.50
2019-05-22T14:17:44.224Z,13.60
2019-05-22T14:20:15.097Z,13.80
2019-05-22T14:22:43.775Z,14.00
2019-05-22T14:25:12.818Z,14.10
2019-05-22T14:27:42.105Z,13.80
2019-05-22T14:32:41.300Z,14.10
2019-05-22T14:35:10.224Z,14.40
2019-05-22T14:37:39.253Z,14.30
2019-05-22T14:40:08.413Z,14.50
2019-05-22T14:42:37.813Z,14.90
2019-05-22T14:45:07.528Z,14.10
2019-05-22T14:47:36.200Z,14.10
2019-05-22T14:50:07.856Z,14.30
2019-05-22T14:52:36.542Z,14.20
2019-05-22T14:55:07.255Z,14.60
2019-05-22T14:57:36.499Z,14.70
2019-05-22T15:00:10.399Z,14.90
2019-05-22T15:02:39.216Z,15.00
2019-05-22T15:05:08.540Z,14.60
2019-05-22T15:10:08.329Z,14.90
2019-05-22T15:12:37.231Z,14.90
2019-05-22T15:15:08.259Z,14.90
2019-05-22T15:17:37.033Z,14.90
2019-05-22T15:20:08.210Z,14.60
2019-05-22T15:22:37.476Z,15.00
2019-05-22T15:25:07.543Z,14.50
2019-05-22T15:30:07.287Z,14.90
2019-05-22T15:32:36.107Z,15.40
2019-05-22T15:35:06.076Z,14.50
2019-05-22T15:37:36.143Z,14.90
2019-05-22T15:40:06.907Z,14.40
2019-05-22T15:42:44.844Z,14.30
2019-05-22T15:45:25.486Z,14.50
2019-05-22T15:47:57.556Z,14.30
2019-05-22T15:50:33.845Z,14.10
2019-05-22T15:55:36.676Z,14.00
2019-05-22T15:58:06.629Z,14.00
2019-05-22T16:00:37.609Z,14.00
2019-05-22T16:03:12.533Z,13.90
2019-05-22T16:05:43.042Z,14.40
2019-05-22T16:08:13.400Z,14.10
2019-05-22T16:13:13.424Z,14.00
2019-05-22T16:15:43.801Z,13.80
2019-05-22T16:20:42.440Z,14.20
2019-05-22T16:23:12.007Z,13.90
2019-05-22T16:25:41.488Z,14.10
2019-05-22T16:28:10.596Z,14.00
2019-05-22T16:30:39.592Z,13.90
2019-05-22T16:33:10.265Z,14.10
2019-05-22T16:35:39.052Z,14.20
2019-05-22T16:38:08.329Z,14.20
2019-05-22T16:40:37.621Z,13.90
2019-05-22T16:43:07.099Z,13.80
2019-05-22T16:48:07.915Z,14.10
2019-05-22T16:50:39.130Z,14.10
2019-05-22T16:53:12.075Z,14.00
2019-05-22T16:55:41.439Z,14.00
2019-05-22T16:58:11.138Z,14.00
2019-05-22T17:00:40.909Z,14.20
2019-05-22T17:03:11.679Z,14.00
2019-05-22T17:05:40.855Z,14.10
2019-05-22T17:08:10.833Z,14.00
2019-05-22T17:10:40.314Z,14.10
2019-05-22T17:13:12.164Z,14.20
2019-05-22T17:15:40.231Z,14.40
2019-05-22T17:18:10.202Z,14.40
2019-05-22T17:20:39.055Z,14.40
2019-05-22T17:23:07.755Z,14.50
2019-05-22T17:25:37.109Z,14.00
2019-05-22T17:28:07.643Z,14.20
2019-05-22T17:30:38.305Z,14.70
2019-05-22T17:33:07.993Z,14.70
2019-05-22T17:35:37.653Z,14.10
2019-05-22T17:38:08.037Z,14.80
2019-05-22T17:40:37.605Z,14.30
2019-05-22T17:43:09.665Z,13.90
2019-05-22T17:45:41.747Z,14.00
2019-05-22T17:48:11.843Z,14.20
2019-05-22T17:50:40.554Z,14.50
2019-05-22T17:53:09.555Z,13.90
2019-05-22T17:55:38.903Z,13.90
2019-05-22T17:58:08.620Z,13.90
2019-05-22T18:00:41.685Z,14.70
2019-05-22T18:03:10.519Z,13.80
2019-05-22T18:05:40.474Z,14.30
2019-05-22T18:08:10.352Z,14.40
2019-05-22T18:10:41.683Z,14.40
2019-05-22T18:13:12.112Z,14.10
2019-05-22T18:15:40.828Z,14.00
2019-05-22T18:18:10.613Z,14.40
2019-05-22T18:20:43.513Z,14.10
2019-05-22T18:25:38.304Z,14.40
2019-05-22T18:28:07.574Z,14.00
2019-05-22T18:30:37.841Z,14.30
2019-05-22T18:33:07.132Z,14.30
2019-05-22T18:38:05.034Z,14.10
2019-05-22T18:40:34.061Z,13.80
2019-05-22T18:43:02.753Z,13.80
2019-05-22T18:45:31.470Z,13.70
2019-05-22T18:50:28.663Z,14.10
2019-05-22T18:52:57.451Z,14.00
2019-05-22T19:00:24.694Z,13.60
2019-05-22T19:02:53.558Z,13.50
2019-05-22T19:05:25.405Z,13.70
2019-05-22T19:07:54.004Z,13.30
2019-05-22T19:10:23.768Z,13.20
2019-05-22T19:12:52.527Z,13.70
2019-05-22T19:15:21.485Z,13.70
2019-05-22T19:17:50.415Z,13.70
2019-05-22T19:20:19.044Z,13.20
2019-05-22T19:22:59.362Z,13.20
2019-05-22T19:25:17.979Z,13.10
2019-05-22T19:27:46.705Z,13.10
2019-05-22T19:30:19.164Z,13.30
2019-05-22T19:32:48.738Z,13.70
2019-05-22T19:35:17.758Z,13.00
2019-05-22T19:37:47.824Z,12.90
2019-05-22T19:40:18.599Z,12.90
2019-05-22T19:42:47.668Z,13.30
2019-05-22T19:45:17.366Z,13.30
2019-05-22T19:47:55.994Z,13.10
2019-05-22T19:52:55.575Z,13.00
2019-05-22T19:55:26.065Z,13.30
2019-05-22T20:02:51.543Z,13.50
2019-05-22T20:05:22.812Z,13.20
2019-05-22T20:07:52.065Z,13.30
2019-05-22T20:10:21.834Z,13.10
2019-05-22T20:12:50.800Z,13.10
2019-05-22T20:15:19.901Z,13.10
2019-05-22T20:17:48.506Z,12.90
2019-05-22T20:22:47.444Z,12.80
2019-05-22T20:25:19.333Z,12.90
2019-05-22T20:27:48.859Z,12.70
2019-05-22T20:30:20.229Z,12.70
2019-05-22T20:32:49.394Z,12.50
2019-05-22T20:35:18.761Z,12.60
2019-05-22T20:37:47.746Z,12.50
2019-05-22T20:40:20.221Z,12.60
2019-05-22T20:42:49.032Z,12.10
2019-05-22T20:45:19.241Z,12.10
2019-05-22T20:47:49.493Z,12.00
2019-05-22T20:50:20.092Z,11.90
2019-05-22T20:52:49.762Z,12.20
2019-05-22T20:55:19.337Z,11.90
2019-05-22T20:57:48.705Z,12.50
2019-05-22T21:00:19.991Z,12.10
2019-05-22T21:02:50.860Z,12.20
2019-05-22T21:05:21.357Z,12.10
2019-05-22T21:07:52.136Z,11.80
2019-05-22T21:10:23.322Z,11.70
2019-05-22T21:12:53.486Z,11.40
2019-05-22T21:15:23.077Z,11.40
2019-05-22T21:17:52.563Z,11.40
2019-05-22T21:20:22.844Z,11.40
2019-05-22T21:22:52.020Z,11.40
2019-05-22T21:25:21.082Z,11.30
2019-05-22T21:27:50.023Z,11.20
2019-05-22T21:30:20.718Z,11.40
2019-05-22T21:32:50.120Z,11.50
2019-05-22T21:35:19.731Z,11.40
2019-05-22T21:37:48.516Z,11.20
2019-05-22T21:40:21.152Z,11.10
2019-05-22T21:42:51.150Z,11.00
2019-05-22T21:45:20.750Z,10.90
2019-05-22T21:47:49.375Z,10.80
2019-05-22T21:50:19.270Z,10.80
2019-05-22T21:52:47.880Z,10.80
2019-05-22T21:55:18.258Z,10.80
2019-05-22T21:57:47.436Z,10.60
2019-05-22T22:00:34.897Z,10.60
2019-05-22T22:03:28.877Z,10.70
2019-05-22T22:05:59.249Z,10.80
2019-05-22T22:08:29.526Z,10.90
2019-05-22T22:10:58.625Z,10.90
2019-05-22T22:13:29.776Z,10.80
2019-05-22T22:15:58.696Z,10.50
2019-05-22T22:18:27.239Z,10.50
2019-05-22T22:20:56.639Z,10.50
2019-05-22T22:25:54.097Z,10.60
2019-05-22T22:28:24.753Z,10.60
2019-05-22T22:31:11.422Z,10.40
2019-05-22T22:33:41.268Z,10.40
2019-05-22T22:36:11.335Z,10.40
2019-05-22T22:38:39.945Z,10.50
2019-05-22T22:41:09.926Z,10.40
2019-05-22T22:43:40.776Z,10.40
2019-05-22T22:46:19.921Z,10.20
2019-05-22T22:48:51.684Z,10.10
2019-05-22T22:51:21.042Z,10.00
2019-05-22T22:53:50.223Z,10.10
2019-05-22T22:56:20.813Z,10.00
2019-05-22T22:58:49.476Z,9.90
2019-05-22T23:01:25.536Z,10.00
2019-05-22T23:03:59.167Z,10.10
2019-05-22T23:06:28.085Z,9.90
2019-05-22T23:08:56.791Z,9.80
2019-05-22T23:11:27.599Z,9.90
2019-05-22T23:13:57.396Z,9.90
2019-05-22T23:21:33.551Z,9.80
2019-05-22T23:24:01.037Z,9.90
2019-05-22T23:26:30.218Z,9.70
2019-05-22T23:28:59.149Z,10.00
2019-05-22T23:31:29.326Z,9.80
2019-05-22T23:33:58.252Z,9.60
2019-05-22T23:36:27.333Z,9.70
2019-05-22T23:43:56.823Z,10.10
2019-05-22T23:46:27.876Z,10.00
2019-05-22T23:48:59.371Z,10.00
2019-05-22T23:51:28.253Z,10.00
2019-05-22T23:56:27.883Z,9.80
